Time;durP1;ratioP1;P1;durP2;ratioP2;P2;SDS_P1;SDS_P2;PMS_P1;PMS_P2;Temp;Humidity;BMP_temperature;BMP_pressure;BME280_temperature;BME280_humidity;BME280_pressure;Samples;Min_cycle;Max_cycle;Signal;HPM_P1;HPM_P2
2022/08/26 00:00:45;;;;;;;41.35;36.97;;;21.30;99.90;;;;;;5064170;28;20036;-58
2022/08/26 00:03:12;;;;;;;41.40;37.08;;;21.40;99.90;;;;;;5074508;28;20503;-58
2022/08/26 00:05:39;;;;;;;43.15;36.67;;;21.40;99.90;;;;;;5074036;28;20060;-58
2022/08/26 00:08:05;;;;;;;41.78;37.33;;;21.50;99.90;;;;;;5072710;28;20051;-58
2022/08/26 00:10:31;;;;;;;41.35;36.10;;;21.40;99.90;;;;;;5062593;28;20098;-58
2022/08/26 00:12:57;;;;;;;40.13;35.72;;;21.40;99.90;;;;;;5045176;28;20040;-58
2022/08/26 00:15:24;;;;;;;42.83;34.22;;;21.40;99.90;;;;;;5073030;28;20083;-58
2022/08/26 00:17:50;;;;;;;40.30;34.13;;;21.40;99.90;;;;;;5056263;28;20068;-58
2022/08/26 00:20:20;;;;;;;37.70;33.13;;;21.40;99.90;;;;;;5065642;28;20033;-58
2022/08/26 00:22:46;;;;;;;35.92;32.05;;;21.40;99.90;;;;;;5053315;28;20040;-59
2022/08/26 00:25:12;;;;;;;35.70;31.73;;;21.40;99.90;;;;;;5051353;28;20121;-58
2022/08/26 00:27:38;;;;;;;37.20;30.98;;;21.40;99.90;;;;;;5063728;28;20055;-58
2022/08/26 00:30:08;;;;;;;34.20;29.13;;;21.40;99.90;;;;;;5068531;28;20526;-58
2022/08/26 00:32:34;;;;;;;35.38;29.13;;;21.40;99.90;;;;;;5072564;28;20468;-59
2022/08/26 00:35:00;;;;;;;32.90;28.15;;;21.40;99.90;;;;;;5055921;28;20044;-59
2022/08/26 00:37:26;;;;;;;33.33;27.40;;;21.40;99.90;;;;;;5072489;28;20134;-60
2022/08/26 00:39:52;;;;;;;32.40;26.60;;;21.40;99.90;;;;;;5067182;28;20048;-59
2022/08/26 00:42:17;;;;;;;32.17;26.15;;;21.40;99.90;;;;;;5055394;28;20036;-58
2022/08/26 00:44:43;;;;;;;29.60;25.20;;;21.40;99.90;;;;;;5055908;28;20047;-59
2022/08/26 00:47:32;;;;;;;29.73;24.17;;;21.50;99.90;;;;;;5072336;28;20033;-59
2022/08/26 00:50:00;;;;;;;34.92;24.52;;;21.50;99.90;;;;;;5058795;28;20077;-59
2022/08/26 00:52:26;;;;;;;28.60;23.00;;;21.50;99.90;;;;;;5071956;28;20076;-59
2022/08/26 00:55:06;;;;;;;29.20;22.95;;;21.50;99.90;;;;;;5072101;28;20259;-59
2022/08/26 00:57:33;;;;;;;31.58;22.88;;;21.50;99.90;;;;;;5044029;28;20539;-59
2022/08/26 01:00:01;;;;;;;27.65;21.52;;;21.50;99.90;;;;;;5065379;28;20040;-59
2022/08/26 01:02:27;;;;;;;29.15;22.20;;;21.50;99.90;;;;;;5069769;28;20098;-59
2022/08/26 01:04:57;;;;;;;31.33;21.35;;;21.50;99.90;;;;;;5072077;28;20086;-58
2022/08/26 01:07:28;;;;;;;25.73;20.50;;;21.50;99.90;;;;;;5055214;28;20047;-60
2022/08/26 01:09:55;;;;;;;29.45;20.75;;;21.40;99.90;;;;;;5062767;28;20048;-60
2022/08/26 01:12:23;;;;;;;25.77;19.38;;;21.50;99.90;;;;;;5050161;28;20062;-59
2022/08/26 01:14:49;;;;;;;34.20;19.80;;;21.50;99.90;;;;;;5072419;28;20033;-59
2022/08/26 01:17:15;;;;;;;27.15;19.02;;;21.60;99.90;;;;;;5058544;28;20371;-59
2022/08/26 01:19:45;;;;;;;26.42;18.27;;;21.60;99.90;;;;;;5062973;28;20144;-60
2022/08/26 01:22:31;;;;;;;24.17;18.33;;;21.50;99.90;;;;;;5052161;28;20283;-59
2022/08/26 01:25:02;;;;;;;23.75;17.27;;;21.50;99.90;;;;;;5037901;28;20678;-60
2022/08/26 01:27:30;;;;;;;22.20;16.23;;;21.50;99.90;;;;;;5071488;28;20040;-59
2022/08/26 01:29:57;;;;;;;22.17;15.93;;;21.50;99.90;;;;;;5051616;28;20041;-59
2022/08/26 01:32:24;;;;;;;19.13;15.38;;;21.50;99.90;;;;;;5071443;28;20043;-58
2022/08/26 01:34:51;;;;;;;20.40;15.13;;;21.50;99.90;;;;;;5057643;28;20123;-59
2022/08/26 01:37:20;;;;;;;20.55;14.27;;;21.50;99.90;;;;;;5054788;28;20482;-59
2022/08/26 01:39:49;;;;;;;19.85;13.98;;;21.50;99.90;;;;;;5059218;28;20486;-60
2022/08/26 01:42:17;;;;;;;19.60;13.45;;;21.50;99.90;;;;;;5065955;28;20487;-58
2022/08/26 01:44:51;;;;;;;20.63;12.75;;;21.40;99.90;;;;;;5051394;28;20041;-58
2022/08/26 01:47:19;;;;;;;17.05;11.50;;;21.40;99.90;;;;;;5069977;28;20052;-60
2022/08/26 01:49:48;;;;;;;14.85;11.75;;;21.40;99.90;;;;;;5067880;28;20413;-59
2022/08/26 01:52:20;;;;;;;18.77;10.68;;;21.40;99.90;;;;;;5068663;28;20425;-59
2022/08/26 01:54:46;;;;;;;12.70;10.80;;;21.40;99.90;;;;;;5044592;28;20033;-59
2022/08/26 01:57:14;;;;;;;18.55;11.38;;;21.40;99.90;;;;;;5067358;28;20048;-58
2022/08/26 01:59:40;;;;;;;21.63;11.48;;;21.40;99.90;;;;;;5068199;28;20051;-58
2022/08/26 02:02:06;;;;;;;15.95;10.43;;;21.40;99.90;;;;;;5065547;28;20130;-59
2022/08/26 02:04:36;;;;;;;18.50;10.98;;;21.50;99.90;;;;;;5071190;28;20059;-58
2022/08/26 02:07:07;;;;;;;16.77;11.85;;;21.50;99.90;;;;;;5071320;28;20461;-59
2022/08/26 02:09:37;;;;;;;15.23;10.98;;;21.60;99.90;;;;;;5069343;28;20535;-59
2022/08/26 02:12:04;;;;;;;19.38;11.13;;;21.50;99.90;;;;;;5046752;28;20480;-58
2022/08/26 02:14:37;;;;;;;16.38;8.70;;;21.50;99.90;;;;;;5070765;28;20064;-58
2022/08/26 02:17:05;;;;;;;16.25;9.18;;;21.50;99.90;;;;;;5071423;28;20370;-59
2022/08/26 02:19:36;;;;;;;13.32;7.80;;;21.50;99.90;;;;;;5055301;28;20377;-58
2022/08/26 02:22:05;;;;;;;14.25;7.78;;;21.40;99.90;;;;;;5052113;28;20129;-58
2022/08/26 02:24:54;;;;;;;13.80;7.30;;;21.40;99.90;;;;;;5070750;28;20377;-59
2022/08/26 02:27:23;;;;;;;11.43;7.10;;;21.30;99.90;;;;;;5070893;28;20060;-58
2022/08/26 02:29:59;;;;;;;12.48;6.70;;;21.30;99.90;;;;;;5067484;28;20063;-58
2022/08/26 02:32:25;;;;;;;13.40;7.28;;;21.30;99.90;;;;;;5070473;28;20079;-59
2022/08/26 02:34:50;;;;;;;13.93;7.18;;;21.20;99.90;;;;;;5070535;28;20121;-58
2022/08/26 02:37:16;;;;;;;13.27;8.30;;;21.20;99.90;;;;;;5070381;28;20047;-59
2022/08/26 02:39:42;;;;;;;11.18;6.85;;;21.20;99.90;;;;;;5041107;28;20037;-58
2022/08/26 02:42:08;;;;;;;12.48;6.90;;;21.20;99.90;;;;;;5052054;28;20040;-59
2022/08/26 02:44:34;;;;;;;11.10;7.10;;;21.10;99.90;;;;;;5070718;28;20063;-58
2022/08/26 02:47:00;;;;;;;13.10;7.00;;;21.10;99.90;;;;;;5070374;28;20062;-58
2022/08/26 02:49:29;;;;;;;17.33;6.88;;;21.10;99.90;;;;;;5061833;28;20037;-58
2022/08/26 02:51:55;;;;;;;13.10;6.65;;;21.00;99.90;;;;;;5063406;28;20496;-58
2022/08/26 02:54:21;;;;;;;12.70;6.22;;;20.90;99.90;;;;;;5050078;28;20041;-59
2022/08/26 02:56:48;;;;;;;11.57;6.43;;;20.90;99.90;;;;;;5063179;28;20123;-59
2022/08/26 02:59:14;;;;;;;11.02;5.80;;;20.90;99.90;;;;;;5056204;28;20070;-58
2022/08/26 03:01:40;;;;;;;11.38;5.97;;;20.90;99.90;;;;;;5063059;28;20052;-59
2022/08/26 03:04:10;;;;;;;13.57;5.15;;;20.80;99.90;;;;;;5070089;28;20124;-58
2022/08/26 03:06:36;;;;;;;15.38;5.22;;;20.80;99.90;;;;;;5070299;28;20048;-58
2022/08/26 03:09:02;;;;;;;11.15;4.60;;;20.80;99.90;;;;;;5069819;28;20076;-58
2022/08/26 03:11:29;;;;;;;10.20;4.47;;;20.80;99.90;;;;;;5062310;28;20040;-58
2022/08/26 03:13:55;;;;;;;9.27;3.90;;;20.70;99.90;;;;;;5070197;28;20484;-58
2022/08/26 03:16:21;;;;;;;10.18;4.03;;;20.70;99.90;;;;;;5070012;28;20033;-58
2022/08/26 03:18:46;;;;;;;12.77;4.22;;;20.70;99.90;;;;;;5058325;28;20132;-60
2022/08/26 03:21:15;;;;;;;10.15;3.88;;;20.70;99.90;;;;;;5053639;28;20430;-58
2022/08/26 03:23:42;;;;;;;8.63;4.15;;;20.70;99.90;;;;;;5044265;28;20044;-58
2022/08/26 03:26:10;;;;;;;10.20;3.72;;;20.70;99.90;;;;;;5070266;28;20045;-58
2022/08/26 03:30:38;;;;;;;12.13;3.72;;;20.70;99.90;;;;;;5073809;28;20040;-57
2022/08/26 03:31:21;;;;;;;9.77;3.40;;;20.60;99.90;;;;;;5071878;28;20044;-58
2022/08/26 03:33:47;;;;;;;9.25;3.97;;;20.60;99.90;;;;;;5073985;28;20127;-59
2022/08/26 03:36:13;;;;;;;7.65;3.10;;;20.50;99.90;;;;;;5073882;28;20036;-57
2022/08/26 03:38:38;;;;;;;8.65;2.90;;;20.60;99.90;;;;;;5073404;28;20044;-58
2022/08/26 03:41:04;;;;;;;8.60;2.90;;;20.60;99.90;;;;;;5060742;28;20450;-58
2022/08/26 03:43:30;;;;;;;9.10;2.72;;;20.50;99.90;;;;;;5067820;28;20051;-58
2022/08/26 03:45:55;;;;;;;6.57;2.45;;;20.50;99.90;;;;;;5061276;28;20093;-58
2022/08/26 03:48:21;;;;;;;9.48;2.40;;;20.60;99.90;;;;;;5073448;28;20511;-57
2022/08/26 03:50:46;;;;;;;8.50;2.47;;;20.60;99.90;;;;;;5068309;28;20036;-58
2022/08/26 03:53:12;;;;;;;8.80;2.55;;;20.60;99.90;;;;;;5073375;28;20052;-59
2022/08/26 03:55:38;;;;;;;7.63;2.13;;;20.60;99.90;;;;;;5070527;28;20056;-58
2022/08/26 03:58:03;;;;;;;11.73;2.65;;;20.60;99.90;;;;;;5062611;28;20396;-58
2022/08/26 04:00:29;;;;;;;10.07;2.70;;;20.60;99.90;;;;;;5065015;28;20037;-58
2022/08/26 04:02:55;;;;;;;7.63;2.70;;;20.60;99.90;;;;;;5061029;28;20132;-58
2022/08/26 04:05:22;;;;;;;8.02;2.13;;;20.60;99.90;;;;;;5073466;28;20497;-58
2022/08/26 04:07:48;;;;;;;8.85;2.28;;;20.70;99.90;;;;;;5054635;28;20355;-58
2022/08/26 04:10:16;;;;;;;7.38;2.38;;;20.70;99.90;;;;;;5042085;28;20045;-58
2022/08/26 04:12:42;;;;;;;9.32;2.47;;;20.70;99.90;;;;;;5068477;28;20055;-58
2022/08/26 04:15:13;;;;;;;7.35;2.30;;;20.70;99.90;;;;;;5044904;28;20032;-59
2022/08/26 04:17:39;;;;;;;9.90;2.75;;;20.60;99.90;;;;;;5041028;28;20381;-58
2022/08/26 04:20:06;;;;;;;7.75;2.42;;;20.70;99.90;;;;;;5026720;28;20339;-58
2022/08/26 04:22:32;;;;;;;9.88;3.05;;;20.70;99.90;;;;;;5043617;28;20357;-58
2022/08/26 04:24:58;;;;;;;6.22;2.03;;;20.60;99.90;;;;;;5033466;28;20085;-58
2022/08/26 04:27:23;;;;;;;9.95;2.45;;;20.60;99.90;;;;;;5035401;28;20041;-58
2022/08/26 04:29:49;;;;;;;7.38;2.33;;;20.60;99.90;;;;;;5047547;28;20473;-59
2022/08/26 04:32:15;;;;;;;10.80;2.35;;;20.60;99.90;;;;;;5047986;28;20079;-58
2022/08/26 04:34:40;;;;;;;9.40;2.67;;;20.60;99.90;;;;;;5044620;28;20048;-58
2022/08/26 04:37:07;;;;;;;10.20;2.88;;;20.60;99.90;;;;;;5057456;28;20028;-58
2022/08/26 04:39:33;;;;;;;9.55;2.55;;;20.70;99.90;;;;;;5052293;28;20064;-58
2022/08/26 04:41:59;;;;;;;12.45;3.00;;;20.70;99.90;;;;;;5052685;28;20462;-58
2022/08/26 04:44:27;;;;;;;13.50;3.30;;;20.70;99.90;;;;;;5052519;28;20037;-58
2022/08/26 04:46:54;;;;;;;10.77;2.50;;;20.70;99.90;;;;;;5057040;28;20048;-58
2022/08/26 04:49:20;;;;;;;9.43;2.92;;;20.70;99.90;;;;;;5052220;28;20084;-58
2022/08/26 04:51:47;;;;;;;11.75;2.70;;;20.70;99.90;;;;;;5052305;28;20162;-59
2022/08/26 04:54:14;;;;;;;11.98;2.30;;;20.70;99.90;;;;;;5035556;28;20182;-58
2022/08/26 04:56:42;;;;;;;11.60;2.55;;;20.70;99.90;;;;;;5052799;28;20429;-58
2022/08/26 04:59:14;;;;;;;11.07;2.28;;;20.80;99.90;;;;;;5035454;28;20078;-58
2022/08/26 05:01:43;;;;;;;9.88;2.70;;;20.80;99.90;;;;;;5055028;28;20036;-59
2022/08/26 05:04:08;;;;;;;7.43;2.80;;;20.80;99.90;;;;;;5052147;28;20369;-59
2022/08/26 05:06:34;;;;;;;10.15;3.15;;;20.80;99.90;;;;;;5052101;28;20033;-58
2022/08/26 05:09:00;;;;;;;9.32;3.05;;;20.70;99.90;;;;;;5051809;28;20329;-59
2022/08/26 05:11:26;;;;;;;9.20;2.75;;;20.80;99.90;;;;;;5051891;28;20047;-58
2022/08/26 05:13:52;;;;;;;11.45;3.00;;;20.80;99.90;;;;;;5052090;28;20041;-59
2022/08/26 05:16:18;;;;;;;10.93;2.70;;;20.90;99.90;;;;;;5051957;28;20409;-59
2022/08/26 05:18:44;;;;;;;9.05;2.63;;;20.90;99.90;;;;;;5051475;28;20045;-58
2022/08/26 05:21:37;;;;;;;14.45;3.60;;;20.90;99.90;;;;;;5051788;28;20062;-59
2022/08/26 05:24:04;;;;;;;9.55;2.70;;;21.00;99.90;;;;;;5045931;28;20122;-59
2022/08/26 05:26:31;;;;;;;28.27;4.43;;;20.90;99.90;;;;;;5066819;28;20131;-60
2022/08/26 05:28:57;;;;;;;11.90;2.60;;;20.90;99.90;;;;;;5071479;28;20086;-59
2022/08/26 05:31:26;;;;;;;11.93;2.90;;;20.90;99.90;;;;;;5070688;28;20040;-59
2022/08/26 05:33:52;;;;;;;15.52;2.97;;;21.00;99.90;;;;;;5071693;28;20119;-59
2022/08/26 05:36:22;;;;;;;11.02;3.35;;;21.00;99.90;;;;;;5071849;28;20041;-58
2022/08/26 05:38:48;;;;;;;11.93;2.80;;;21.00;99.90;;;;;;5071241;28;20444;-59
2022/08/26 05:41:18;;;;;;;11.65;2.78;;;20.90;99.90;;;;;;5069078;28;20037;-58
2022/08/26 05:43:44;;;;;;;11.15;2.85;;;20.90;99.90;;;;;;5071504;28;20044;-59
2022/08/26 05:46:10;;;;;;;12.43;2.92;;;20.90;99.90;;;;;;5054261;28;20463;-59
2022/08/26 05:48:37;;;;;;;14.68;3.15;;;20.90;99.90;;;;;;5069433;28;20149;-60
2022/08/26 05:51:08;;;;;;;12.05;2.70;;;20.90;99.90;;;;;;5058880;28;20083;-58
2022/08/26 05:53:34;;;;;;;9.80;2.88;;;20.90;99.90;;;;;;5056980;28;20037;-58
2022/08/26 05:56:01;;;;;;;15.68;2.95;;;20.80;99.90;;;;;;5071241;28;20497;-58
2022/08/26 05:58:27;;;;;;;14.15;2.75;;;20.70;99.90;;;;;;5041840;28;20041;-58
2022/08/26 06:01:14;;;;;;;10.00;2.80;;;20.70;99.90;;;;;;5046800;28;20059;-58
2022/08/26 06:03:46;;;;;;;12.70;2.97;;;20.80;99.90;;;;;;5054712;28;20131;-58
2022/08/26 06:06:15;;;;;;;9.57;2.85;;;20.80;99.90;;;;;;5071397;28;20456;-59
2022/08/26 06:08:42;;;;;;;13.02;3.28;;;20.90;99.90;;;;;;5070558;28;20045;-58
2022/08/26 06:11:10;;;;;;;11.40;2.92;;;20.90;99.90;;;;;;5063441;28;20059;-58
2022/08/26 06:13:38;;;;;;;14.52;2.95;;;20.90;99.90;;;;;;5070986;28;20056;-59
2022/08/26 06:16:11;;;;;;;10.40;2.78;;;20.90;99.90;;;;;;5071157;28;20047;-58
2022/08/26 06:18:40;;;;;;;10.47;2.93;;;20.90;99.90;;;;;;5070598;28;20044;-59
2022/08/26 06:21:25;;;;;;;10.48;2.55;;;20.90;99.90;;;;;;5045586;28;20423;-58
2022/08/26 06:26:38;;;;;;;12.73;2.90;;;20.90;99.90;;;;;;5049490;28;20555;-58
2022/08/26 06:29:05;;;;;;;11.73;2.72;;;20.90;99.90;;;;;;5070652;28;20382;-58
2022/08/26 06:31:34;;;;;;;12.35;2.85;;;20.90;99.90;;;;;;5053053;28;20401;-58
2022/08/26 06:34:00;;;;;;;8.60;2.40;;;20.90;99.90;;;;;;5027018;28;20040;-58
2022/08/26 06:36:29;;;;;;;10.23;2.38;;;20.80;99.90;;;;;;5044514;28;20090;-59
2022/08/26 06:39:00;;;;;;;13.57;2.97;;;20.80;99.90;;;;;;5023506;28;20033;-58
2022/08/26 06:41:26;;;;;;;10.85;2.80;;;20.90;99.90;;;;;;5025565;28;20051;-58
2022/08/26 06:43:51;;;;;;;11.63;2.55;;;20.80;99.90;;;;;;5046237;28;20041;-58
2022/08/26 06:46:20;;;;;;;14.27;3.00;;;20.90;99.90;;;;;;5036227;28;20102;-58
2022/08/26 06:48:46;;;;;;;13.13;3.15;;;20.80;99.90;;;;;;5047728;28;20044;-58
2022/08/26 06:51:21;;;;;;;10.98;2.30;;;20.80;99.90;;;;;;5042531;28;20045;-59
2022/08/26 06:53:49;;;;;;;7.88;2.33;;;20.90;99.90;;;;;;5048133;28;20048;-58
2022/08/26 06:56:18;;;;;;;9.95;2.35;;;20.90;99.90;;;;;;5033218;28;20033;-59
2022/08/26 06:58:44;;;;;;;8.77;2.30;;;20.90;99.90;;;;;;5042017;28;20124;-59
2022/08/26 07:01:29;;;;;;;11.52;3.10;;;20.90;99.90;;;;;;5023490;28;20036;-58
2022/08/26 07:03:57;;;;;;;12.68;2.65;;;20.90;99.90;;;;;;5063591;28;20048;-57
2022/08/26 07:06:26;;;;;;;10.85;2.80;;;20.80;99.90;;;;;;5050327;28;20044;-58
2022/08/26 07:09:00;;;;;;;8.35;2.65;;;20.90;99.90;;;;;;5049770;28;20055;-58
2022/08/26 07:11:26;;;;;;;8.63;2.30;;;20.90;99.90;;;;;;5051532;28;20044;-57
2022/08/26 07:13:52;;;;;;;8.98;2.13;;;20.90;99.90;;;;;;5051203;28;20091;-58
2022/08/26 07:16:18;;;;;;;10.07;2.45;;;20.90;99.90;;;;;;5051003;28;20076;-58
2022/08/26 07:18:45;;;;;;;5.95;1.88;;;20.90;99.90;;;;;;5051028;28;20095;-58
2022/08/26 07:21:14;;;;;;;8.60;2.65;;;21.00;99.90;;;;;;5049657;28;20336;-58
2022/08/26 07:23:40;;;;;;;6.43;1.88;;;21.00;99.90;;;;;;5050974;28;20056;-58
2022/08/26 07:26:08;;;;;;;6.68;2.25;;;21.00;99.90;;;;;;5062804;28;20113;-57
2022/08/26 07:28:34;;;;;;;11.15;3.10;;;21.00;99.90;;;;;;5057125;28;20045;-57
2022/08/26 07:31:05;;;;;;;7.95;1.92;;;21.00;99.90;;;;;;5055907;28;20040;-57
2022/08/26 07:33:30;;;;;;;8.40;2.10;;;21.10;99.90;;;;;;5036459;28;20048;-58
2022/08/26 07:35:56;;;;;;;9.88;2.33;;;21.10;99.90;;;;;;5034906;28;20120;-58
2022/08/26 07:38:21;;;;;;;11.85;2.85;;;21.20;99.90;;;;;;5029295;28;20038;-58
2022/08/26 07:40:47;;;;;;;10.18;2.30;;;21.20;99.90;;;;;;5040166;28;20033;-57
2022/08/26 07:43:14;;;;;;;8.93;2.65;;;21.30;99.90;;;;;;5049940;28;20106;-57
2022/08/26 07:45:41;;;;;;;10.65;2.60;;;21.30;99.90;;;;;;5059858;28;20056;-58
2022/08/26 07:48:06;;;;;;;10.85;2.67;;;21.40;99.90;;;;;;5048707;28;20040;-57
2022/08/26 07:50:33;;;;;;;6.30;1.60;;;21.40;99.90;;;;;;5049765;28;20098;-58
2022/08/26 07:53:01;;;;;;;6.65;2.03;;;21.50;99.90;;;;;;5049610;28;20052;-58
2022/08/26 07:55:27;;;;;;;11.18;2.05;;;21.50;99.90;;;;;;5040406;28;20060;-58
2022/08/26 07:57:52;;;;;;;9.73;2.05;;;21.50;99.90;;;;;;5044771;28;20060;-57
2022/08/26 08:00:18;;;;;;;12.85;3.08;;;21.60;99.90;;;;;;5034186;28;20042;-58
2022/08/26 08:02:44;;;;;;;9.90;2.28;;;21.60;99.90;;;;;;5042401;28;20030;-59
2022/08/26 08:05:12;;;;;;;10.05;1.90;;;21.70;99.90;;;;;;5021979;28;20060;-57
2022/08/26 08:07:39;;;;;;;11.75;2.10;;;21.70;99.90;;;;;;5052525;28;20033;-57
2022/08/26 08:10:06;;;;;;;7.82;2.00;;;21.70;99.90;;;;;;5051401;28;20435;-58
2022/08/26 08:12:31;;;;;;;9.30;2.75;;;21.80;99.90;;;;;;5056039;28;20060;-57
2022/08/26 08:14:57;;;;;;;10.15;2.25;;;22.00;99.90;;;;;;5053149;28;20454;-57
2022/08/26 08:17:23;;;;;;;8.32;2.35;;;22.00;99.90;;;;;;5053214;28;20106;-57
2022/08/26 08:19:48;;;;;;;9.32;2.08;;;22.10;99.90;;;;;;5059755;28;20036;-57
2022/08/26 08:22:16;;;;;;;8.93;2.00;;;22.00;99.90;;;;;;5054666;28;20039;-57
2022/08/26 08:24:41;;;;;;;8.93;1.92;;;22.00;99.90;;;;;;5040246;28;20071;-61
2022/08/26 08:27:07;;;;;;;4.65;1.63;;;22.00;99.90;;;;;;5061012;28;20048;-57
2022/08/26 08:29:35;;;;;;;11.57;2.50;;;22.10;99.90;;;;;;5069772;28;20063;-58
2022/08/26 08:32:02;;;;;;;10.93;2.05;;;22.00;99.90;;;;;;5058905;28;20044;-59
2022/08/26 08:34:28;;;;;;;10.15;2.03;;;21.90;99.90;;;;;;5058360;28;20508;-58
2022/08/26 08:36:54;;;;;;;10.68;2.50;;;21.90;99.90;;;;;;5052891;28;20064;-58
2022/08/26 08:39:21;;;;;;;7.82;1.88;;;21.90;99.90;;;;;;5054151;28;20059;-57
2022/08/26 08:42:22;;;;;;;7.03;2.00;;;22.00;99.90;;;;;;5052911;28;20280;-57
2022/08/26 08:44:50;;;;;;;7.57;1.90;;;21.90;99.90;;;;;;5040730;28;20041;-59
2022/08/26 08:47:22;;;;;;;8.10;1.88;;;21.80;99.90;;;;;;5040792;28;20048;-58
2022/08/26 08:49:48;;;;;;;8.52;1.98;;;21.90;99.90;;;;;;5043811;28;20473;-58
2022/08/26 08:52:28;;;;;;;11.38;1.95;;;21.80;99.90;;;;;;5052509;28;20087;-58
2022/08/26 19:09:51;;;;;;;7.32;2.10;;;19.60;99.90;;;;;;5142406;27;20099;-58
2022/08/26 19:12:17;;;;;;;9.02;2.17;;;19.60;99.90;;;;;;5130024;27;20039;-61
2022/08/26 19:14:42;;;;;;;6.45;2.08;;;19.50;99.90;;;;;;5131615;28;20046;-60
2022/08/26 19:17:09;;;;;;;8.25;2.60;;;19.50;99.90;;;;;;5129360;28;20028;-58
2022/08/26 19:19:35;;;;;;;7.60;2.30;;;19.50;99.90;;;;;;5131717;28;20130;-58
2022/08/26 19:22:00;;;;;;;5.82;2.60;;;19.60;99.90;;;;;;5130816;28;20114;-58
2022/08/26 19:24:27;;;;;;;7.18;2.47;;;19.50;99.90;;;;;;5130314;28;20110;-58
2022/08/26 19:26:55;;;;;;;5.15;2.10;;;19.50;99.90;;;;;;5129383;28;20062;-59
2022/08/26 19:29:26;;;;;;;6.88;2.67;;;19.50;99.90;;;;;;5128905;28;20042;-59
2022/08/26 19:31:52;;;;;;;6.85;2.63;;;19.40;99.90;;;;;;5129453;27;20032;-59
2022/08/26 19:34:17;;;;;;;4.38;2.22;;;19.40;99.90;;;;;;5111703;28;20035;-58
2022/08/26 19:36:43;;;;;;;6.45;2.35;;;19.30;99.90;;;;;;5128657;28;20035;-60
2022/08/26 19:39:10;;;;;;;7.13;2.00;;;19.30;99.90;;;;;;5128529;28;20714;-61
2022/08/26 19:41:37;;;;;;;5.78;2.22;;;19.30;99.90;;;;;;5128757;28;20114;-59
2022/08/26 19:45:06;;;;;;;5.75;2.38;;;19.30;99.90;;;;;;5128656;28;20111;-59
2022/08/26 19:46:58;;;;;;;5.38;2.20;;;19.30;99.90;;;;;;5127139;28;20119;-59
2022/08/26 19:49:24;;;;;;;5.80;2.40;;;19.40;99.90;;;;;;5108967;28;20070;-59
2022/08/26 19:51:50;;;;;;;8.60;2.17;;;19.20;99.90;;;;;;5109886;28;20092;-60
2022/08/26 19:54:16;;;;;;;4.95;2.05;;;19.20;99.90;;;;;;5128378;28;20027;-58
2022/08/26 19:56:41;;;;;;;6.72;2.40;;;19.10;99.90;;;;;;5128338;28;20042;-60
2022/08/26 19:59:07;;;;;;;7.13;2.13;;;19.10;99.90;;;;;;5128696;28;20031;-59
2022/08/26 20:01:33;;;;;;;5.60;2.40;;;19.10;99.90;;;;;;5128585;28;20038;-59
2022/08/26 20:03:58;;;;;;;6.28;2.17;;;19.00;99.90;;;;;;5128684;28;20421;-60
2022/08/26 20:06:24;;;;;;;6.72;2.30;;;19.00;99.90;;;;;;5127954;28;20028;-59
2022/08/26 20:08:50;;;;;;;6.80;2.28;;;19.10;99.90;;;;;;5127380;28;20065;-60
2022/08/26 20:11:17;;;;;;;7.35;2.30;;;19.10;99.90;;;;;;5127606;28;20036;-59
2022/08/26 20:13:45;;;;;;;8.10;2.75;;;19.10;99.90;;;;;;5127896;28;20050;-60
2022/08/26 20:16:12;;;;;;;7.15;2.85;;;19.10;99.90;;;;;;5127251;27;20507;-60
2022/08/26 20:21:26;;;;;;;7.53;2.38;;;19.10;99.90;;;;;;5113241;28;20044;-59
2022/08/26 20:23:59;;;;;;;5.88;2.53;;;19.10;99.90;;;;;;5112772;28;20116;-59
2022/08/26 20:26:25;;;;;;;5.78;2.15;;;19.10;99.90;;;;;;5113254;28;20475;-59
2022/08/26 20:28:51;;;;;;;6.95;2.17;;;19.10;99.90;;;;;;5114042;28;20126;-59
2022/08/26 20:31:17;;;;;;;7.45;2.40;;;19.10;99.90;;;;;;5095728;28;20130;-59
2022/08/26 20:33:43;;;;;;;7.93;2.47;;;19.10;99.90;;;;;;5113925;28;20050;-59
2022/08/26 20:36:09;;;;;;;6.88;2.33;;;19.10;99.90;;;;;;5113905;28;20100;-59
2022/08/26 20:38:35;;;;;;;7.90;2.10;;;19.20;99.90;;;;;;5113916;28;20036;-58
2022/08/26 20:41:01;;;;;;;7.35;2.30;;;19.10;99.90;;;;;;5113809;27;20122;-60
2022/08/26 20:43:27;;;;;;;6.20;2.13;;;19.10;99.90;;;;;;5113798;28;20039;-60
2022/08/26 20:45:53;;;;;;;7.72;2.05;;;19.10;99.90;;;;;;5113747;28;20355;-61
2022/08/26 20:48:18;;;;;;;6.55;2.35;;;18.90;99.90;;;;;;5114706;28;20069;-60
2022/08/26 20:50:45;;;;;;;5.63;2.38;;;18.90;99.90;;;;;;5096710;28;20059;-60
2022/08/26 20:53:11;;;;;;;6.55;2.10;;;18.90;99.90;;;;;;5096721;28;20126;-60
2022/08/26 20:55:37;;;;;;;8.23;2.30;;;18.80;99.90;;;;;;5114174;28;20516;-60
2022/08/26 20:58:03;;;;;;;6.32;2.40;;;18.70;99.90;;;;;;5114087;28;20043;-60
2022/08/26 21:00:28;;;;;;;6.85;2.78;;;18.80;99.90;;;;;;5114693;28;20157;-61
2022/08/26 21:02:55;;;;;;;7.05;3.25;;;18.70;99.90;;;;;;5096718;28;20448;-60
2022/08/26 21:05:21;;;;;;;5.15;2.13;;;18.70;99.90;;;;;;5114299;28;20043;-60
2022/08/26 21:07:47;;;;;;;8.35;2.97;;;18.70;99.90;;;;;;5113621;28;20040;-59
2022/08/26 21:10:13;;;;;;;6.03;2.50;;;18.70;99.90;;;;;;5114387;28;20050;-60
2022/08/26 21:12:39;;;;;;;5.40;2.28;;;18.70;99.90;;;;;;5113877;28;20031;-60
2022/08/26 21:15:06;;;;;;;9.85;2.58;;;18.70;99.90;;;;;;5110616;28;20038;-59
2022/08/26 21:17:32;;;;;;;7.18;2.30;;;18.60;99.90;;;;;;5113085;28;20520;-60
2022/08/26 21:19:58;;;;;;;4.95;2.47;;;18.50;99.90;;;;;;5113721;28;20031;-61
2022/08/26 21:22:24;;;;;;;7.82;2.72;;;18.50;99.90;;;;;;5114108;28;20032;-60
2022/08/26 21:24:49;;;;;;;7.57;2.33;;;18.50;99.90;;;;;;5113998;28;20089;-60
2022/08/26 21:27:15;;;;;;;8.02;3.03;;;18.30;99.90;;;;;;5129950;27;20417;-62
2022/08/26 21:29:41;;;;;;;8.82;2.63;;;18.30;99.90;;;;;;5113272;28;20035;-60
2022/08/26 21:32:06;;;;;;;7.97;2.30;;;18.20;99.90;;;;;;5111991;28;20401;-60
2022/08/26 21:34:32;;;;;;;7.15;2.65;;;18.20;99.90;;;;;;5113088;28;20430;-61
2022/08/26 21:36:58;;;;;;;7.72;3.10;;;18.10;99.90;;;;;;5112598;28;20031;-60
2022/08/26 21:39:24;;;;;;;6.63;2.60;;;18.00;99.90;;;;;;5112750;28;20051;-60
2022/08/26 21:41:49;;;;;;;9.95;3.08;;;18.00;99.90;;;;;;5112926;28;20046;-62
2022/08/26 21:44:16;;;;;;;9.60;3.28;;;17.90;99.90;;;;;;5112290;28;20416;-62
2022/08/26 21:46:44;;;;;;;8.32;2.88;;;17.90;99.90;;;;;;5111461;28;20090;-62
2022/08/26 21:49:11;;;;;;;7.03;2.80;;;17.70;99.90;;;;;;5111739;28;20032;-60
2022/08/26 21:51:41;;;;;;;7.82;3.40;;;17.70;99.90;;;;;;5111685;28;20460;-61
2022/08/26 21:54:07;;;;;;;8.02;2.97;;;17.60;99.90;;;;;;5111592;28;20066;-61
2022/08/26 21:56:38;;;;;;;9.32;2.85;;;17.60;99.90;;;;;;5094005;28;20047;-60
2022/08/26 21:59:05;;;;;;;9.80;3.03;;;17.50;99.90;;;;;;5092987;28;20039;-60
2022/08/26 22:01:33;;;;;;;8.90;2.65;;;17.50;99.90;;;;;;5111281;28;20043;-59
2022/08/26 22:04:02;;;;;;;7.40;2.70;;;17.50;99.90;;;;;;5111035;28;20459;-60
2022/08/26 22:06:30;;;;;;;10.80;3.13;;;17.50;99.90;;;;;;5094646;28;20058;-60
2022/08/26 22:08:56;;;;;;;7.65;2.58;;;17.50;99.90;;;;;;5112358;28;20086;-61
2022/08/26 22:11:22;;;;;;;10.13;3.00;;;17.40;99.90;;;;;;5112689;28;20035;-60
2022/08/26 22:13:49;;;;;;;9.07;2.97;;;17.40;99.90;;;;;;5113052;28;20039;-61
2022/08/26 22:16:15;;;;;;;10.43;3.53;;;17.40;99.90;;;;;;5112729;28;20035;-61
2022/08/26 22:18:44;;;;;;;7.80;3.10;;;17.40;99.90;;;;;;5112874;28;20107;-60
2022/08/26 22:21:16;;;;;;;7.28;3.30;;;17.30;99.90;;;;;;5112143;28;20482;-61
2022/08/26 22:23:42;;;;;;;6.45;2.80;;;17.30;99.90;;;;;;5112674;28;20036;-61
2022/08/26 22:26:10;;;;;;;9.18;2.83;;;17.20;99.90;;;;;;5112276;28;20440;-61
2022/08/26 22:28:37;;;;;;;6.88;3.20;;;17.10;99.90;;;;;;5112499;28;20256;-61
2022/08/26 22:31:02;;;;;;;6.10;3.03;;;17.10;99.90;;;;;;5112431;28;20085;-60
2022/08/26 22:33:28;;;;;;;8.63;3.17;;;17.00;99.90;;;;;;5112378;28;20491;-60
2022/08/26 22:35:54;;;;;;;9.20;3.30;;;16.90;99.90;;;;;;5111693;28;20039;-60
2022/08/26 22:38:22;;;;;;;7.05;4.00;;;16.90;99.90;;;;;;5111748;28;20032;-60
2022/08/26 22:40:53;;;;;;;7.05;3.33;;;16.90;99.90;;;;;;5111585;28;20435;-60
2022/08/26 22:43:19;;;;;;;7.85;3.60;;;16.80;99.90;;;;;;5111812;28;20051;-60
2022/08/26 22:45:47;;;;;;;8.10;3.63;;;16.70;99.90;;;;;;5093686;28;20036;-60
2022/08/26 22:48:15;;;;;;;8.90;3.33;;;16.70;99.90;;;;;;5111729;28;20046;-60
2022/08/26 22:50:42;;;;;;;9.68;3.55;;;16.70;99.90;;;;;;5111776;28;20043;-60
2022/08/26 22:53:08;;;;;;;6.07;3.17;;;16.60;99.90;;;;;;5111185;28;20118;-60
2022/08/26 22:55:34;;;;;;;8.20;3.22;;;16.60;99.90;;;;;;5111152;28;20135;-60
2022/08/26 22:57:59;;;;;;;7.45;3.67;;;16.60;99.90;;;;;;5111822;28;20058;-60
2022/08/26 23:00:27;;;;;;;9.63;3.60;;;16.50;99.90;;;;;;5112114;28;20533;-60
2022/08/26 23:02:54;;;;;;;8.50;3.97;;;16.50;99.90;;;;;;5111834;28;20054;-63